Time;durP1;ratioP1;P1;durP2;ratioP2;P2;SDS_P1;SDS_P2;PMS_P1;PMS_P2;Temp;Humidity;BMP_temperature;BMP_pressure;BME280_temperature;BME280_humidity;BME280_pressure;Samples;Min_cycle;Max_cycle;Signal;HPM_P1;HPM_P2
2023/03/16 00:01:18;;;;;;;5.88;3.63;;;3.10;1.00;;;;;;5042587;28;20419;-62
2023/03/16 00:03:45;;;;;;;6.85;3.15;;;3.00;1.00;;;;;;5041937;28;20418;-62
2023/03/16 00:06:12;;;;;;;7.43;3.63;;;3.00;99.90;;;;;;5043933;28;20413;-62
2023/03/16 00:08:42;;;;;;;6.45;3.33;;;3.00;1.00;;;;;;5043168;28;20458;-62
2023/03/16 00:11:08;;;;;;;6.85;3.47;;;2.90;1.00;;;;;;5042038;28;20769;-62
2023/03/16 00:13:35;;;;;;;6.63;3.53;;;2.90;1.00;;;;;;5043082;28;20413;-62
2023/03/16 00:16:03;;;;;;;5.90;3.53;;;3.00;1.00;;;;;;5044211;28;20417;-62
2023/03/16 00:18:37;;;;;;;6.00;3.67;;;3.00;1.00;;;;;;5042135;28;20502;-62
2023/03/16 00:21:05;;;;;;;6.70;3.58;;;3.00;1.00;;;;;;5041368;28;21207;-62
2023/03/16 00:23:34;;;;;;;7.90;3.65;;;3.00;1.00;;;;;;5049374;28;20443;-62
2023/03/16 00:26:04;;;;;;;7.97;3.53;;;3.00;1.00;;;;;;5045376;28;20434;-62
2023/03/16 00:28:34;;;;;;;7.53;3.90;;;3.00;1.00;;;;;;5043026;28;20475;-62
2023/03/16 00:31:01;;;;;;;6.47;3.63;;;3.00;1.00;;;;;;5043659;28;20424;-62
2023/03/16 00:33:28;;;;;;;6.70;3.72;;;3.10;1.00;;;;;;5041713;28;20449;-60
2023/03/16 00:36:01;;;;;;;9.77;3.70;;;3.00;1.00;;;;;;5041870;28;20411;-62
2023/03/16 00:38:28;;;;;;;5.68;3.63;;;3.00;1.00;;;;;;5041805;28;20454;-62
2023/03/16 00:40:55;;;;;;;6.97;3.80;;;3.10;1.00;;;;;;5041628;28;20465;-62
2023/03/16 00:43:26;;;;;;;8.15;3.72;;;3.10;1.00;;;;;;5040878;28;20423;-62
2023/03/16 00:45:57;;;;;;;8.32;3.53;;;3.00;1.00;;;;;;5041542;28;20415;-60
2023/03/16 00:48:24;;;;;;;9.20;4.03;;;3.00;1.00;;;;;;5032328;28;20423;-62
2023/03/16 00:50:53;;;;;;;9.70;4.00;;;3.00;1.00;;;;;;5032343;28;20414;-62
2023/03/16 00:53:21;;;;;;;6.88;3.90;;;2.90;1.00;;;;;;5039538;28;21129;-62
2023/03/16 00:55:47;;;;;;;7.18;3.90;;;3.00;1.00;;;;;;5049626;28;20425;-61
2023/03/16 00:58:14;;;;;;;7.70;4.10;;;3.00;15.60;;;;;;5041076;28;20467;-61
2023/03/16 01:00:42;;;;;;;10.48;4.45;;;2.90;26.60;;;;;;5042344;28;20409;-60
2023/03/16 01:03:09;;;;;;;6.45;4.22;;;2.90;99.90;;;;;;5043057;28;20417;-61
2023/03/16 01:05:40;;;;;;;6.03;4.03;;;2.90;99.90;;;;;;5041124;28;20457;-62
2023/03/16 01:08:07;;;;;;;8.30;4.00;;;2.90;99.90;;;;;;5040568;28;20521;-62
2023/03/16 01:10:34;;;;;;;7.90;4.28;;;3.00;99.90;;;;;;5031800;28;20435;-62
2023/03/16 01:13:02;;;;;;;6.95;4.00;;;2.90;99.90;;;;;;5031755;28;20415;-61
2023/03/16 01:15:29;;;;;;;7.47;4.20;;;2.90;99.90;;;;;;5031722;28;20916;-62
2023/03/16 01:17:57;;;;;;;7.50;3.95;;;2.90;99.90;;;;;;5031721;28;20419;-62
2023/03/16 01:20:25;;;;;;;6.05;3.90;;;3.00;99.90;;;;;;5031672;28;20463;-61
2023/03/16 01:22:52;;;;;;;5.95;4.10;;;3.00;99.90;;;;;;5041375;28;20462;-61
2023/03/16 01:25:20;;;;;;;7.90;4.18;;;2.90;99.90;;;;;;5055059;28;20477;-62
2023/03/16 01:27:46;;;;;;;9.25;4.53;;;3.10;99.90;;;;;;5040548;28;20419;-62
2023/03/16 01:30:13;;;;;;;7.13;3.95;;;3.00;99.90;;;;;;5041103;28;20995;-62
2023/03/16 01:32:40;;;;;;;5.90;3.40;;;3.00;99.90;;;;;;5042999;28;20973;-61
2023/03/16 01:35:09;;;;;;;9.20;3.70;;;3.00;99.90;;;;;;5041217;28;20487;-62
2023/03/16 01:37:36;;;;;;;7.93;3.67;;;3.10;99.90;;;;;;5042849;28;20490;-61
2023/03/16 01:40:05;;;;;;;7.32;3.90;;;3.00;60.50;;;;;;5042783;28;20431;-61
2023/03/16 01:42:31;;;;;;;8.80;3.97;;;3.10;18.70;;;;;;5040837;28;20903;-61
2023/03/16 01:45:04;;;;;;;7.88;4.28;;;3.10;1.00;;;;;;5042519;28;20475;-62
2023/03/16 01:47:36;;;;;;;7.57;3.80;;;3.00;1.00;;;;;;5042145;28;20420;-62
2023/03/16 01:50:05;;;;;;;5.85;3.63;;;3.10;1.00;;;;;;5040511;28;20458;-62
2023/03/16 01:52:36;;;;;;;4.90;3.33;;;3.10;1.00;;;;;;5039993;28;20470;-62
2023/03/16 01:55:06;;;;;;;7.05;3.75;;;3.10;1.00;;;;;;5052237;28;20819;-62
2023/03/16 01:57:36;;;;;;;6.75;3.83;;;3.10;1.00;;;;;;5044089;28;20895;-62
2023/03/16 02:00:09;;;;;;;5.57;3.28;;;3.10;1.00;;;;;;5040645;28;20416;-62
2023/03/16 02:02:39;;;;;;;4.68;3.38;;;3.20;1.00;;;;;;5039766;28;20415;-61
2023/03/16 02:05:11;;;;;;;6.63;3.65;;;3.30;1.00;;;;;;5040667;28;20479;-61
2023/03/16 02:07:44;;;;;;;6.82;4.10;;;3.10;99.90;;;;;;5042260;28;20425;-61
2023/03/16 02:10:12;;;;;;;5.22;3.13;;;3.00;1.00;;;;;;5041799;28;20470;-61
2023/03/16 02:12:39;;;;;;;6.83;3.30;;;3.10;99.90;;;;;;5039945;28;20411;-61
2023/03/16 02:15:07;;;;;;;8.13;3.85;;;3.00;99.90;;;;;;5039713;28;20415;-61
2023/03/16 02:17:35;;;;;;;5.50;3.50;;;3.10;99.90;;;;;;5042224;28;20409;-62
2023/03/16 02:20:13;;;;;;;7.23;3.70;;;3.00;99.90;;;;;;5040398;28;20877;-62
2023/03/16 02:22:44;;;;;;;5.88;3.00;;;3.00;99.90;;;;;;5039872;28;20750;-62
2023/03/16 02:25:13;;;;;;;4.57;2.85;;;3.00;99.90;;;;;;5052710;28;20415;-61
2023/03/16 02:27:47;;;;;;;7.22;3.35;;;3.10;99.90;;;;;;5041470;28;20409;-62
2023/03/16 02:30:16;;;;;;;6.30;3.50;;;3.10;99.90;;;;;;5041554;28;20891;-62
2023/03/16 02:32:46;;;;;;;3.97;2.75;;;3.10;99.90;;;;;;5040520;28;20415;-61
2023/03/16 02:35:13;;;;;;;5.77;3.20;;;3.20;99.90;;;;;;5039385;28;20541;-62
2023/03/16 02:37:40;;;;;;;3.80;3.00;;;3.20;99.90;;;;;;5040795;28;20459;-61
2023/03/16 02:40:21;;;;;;;5.78;3.00;;;3.20;99.90;;;;;;5041990;28;20764;-60
2023/03/16 02:42:53;;;;;;;5.75;3.20;;;3.20;99.90;;;;;;5030699;28;20501;-62
2023/03/16 02:45:23;;;;;;;5.75;2.95;;;3.20;99.90;;;;;;5040119;28;20465;-61
2023/03/16 02:47:53;;;;;;;5.40;3.08;;;3.10;99.90;;;;;;5039060;28;20905;-62
2023/03/16 02:50:20;;;;;;;5.60;3.33;;;3.10;99.90;;;;;;5040683;28;20927;-61
2023/03/16 02:52:47;;;;;;;4.55;3.00;;;3.10;99.90;;;;;;5041143;28;20421;-62
2023/03/16 02:55:14;;;;;;;4.30;3.03;;;3.20;99.90;;;;;;5047229;28;20439;-62
2023/03/16 02:57:41;;;;;;;6.85;3.05;;;3.20;99.90;;;;;;5040190;28;20445;-62
2023/03/16 03:00:11;;;;;;;5.85;3.15;;;3.10;99.90;;;;;;5041532;28;20475;-62
2023/03/16 03:02:39;;;;;;;5.13;2.95;;;3.00;99.90;;;;;;5040683;28;20415;-62
2023/03/16 03:05:07;;;;;;;4.95;2.92;;;3.00;99.90;;;;;;5039157;28;20461;-61
2023/03/16 03:07:33;;;;;;;5.32;2.95;;;3.00;99.90;;;;;;5040731;28;20420;-60
2023/03/16 03:10:02;;;;;;;5.82;2.85;;;3.10;99.90;;;;;;5041375;28;20436;-63
2023/03/16 03:12:30;;;;;;;4.88;3.05;;;3.10;99.90;;;;;;5040155;28;22263;-61
2023/03/16 03:14:57;;;;;;;6.38;3.20;;;3.10;99.90;;;;;;5041005;28;20464;-61
2023/03/16 03:17:28;;;;;;;5.20;3.00;;;3.10;99.90;;;;;;5038832;28;20426;-60
2023/03/16 03:19:57;;;;;;;7.25;3.25;;;3.10;99.90;;;;;;5039770;28;20497;-60
2023/03/16 03:22:25;;;;;;;6.22;2.78;;;3.10;99.90;;;;;;5041148;28;20412;-61
2023/03/16 03:24:52;;;;;;;5.35;2.75;;;3.20;99.90;;;;;;5045192;28;20421;-61
2023/03/16 03:27:19;;;;;;;5.80;3.00;;;3.20;99.90;;;;;;5048118;28;20422;-61
2023/03/16 03:29:45;;;;;;;4.15;2.70;;;3.20;99.90;;;;;;5044173;28;20842;-61
2023/03/16 03:32:12;;;;;;;4.82;2.90;;;3.20;99.90;;;;;;5044746;28;20471;-61
2023/03/16 03:34:41;;;;;;;5.32;2.78;;;3.20;99.90;;;;;;5033330;28;20465;-61
2023/03/16 03:37:09;;;;;;;5.03;2.90;;;3.10;99.90;;;;;;5033441;28;20889;-61
2023/03/16 03:39:38;;;;;;;5.82;2.90;;;3.20;99.90;;;;;;5033957;28;20415;-61
2023/03/16 03:42:05;;;;;;;3.75;2.58;;;3.30;99.90;;;;;;5033704;28;20468;-60
2023/03/16 03:44:33;;;;;;;6.03;2.80;;;3.40;99.90;;;;;;5033375;28;20419;-60
2023/03/16 03:47:00;;;;;;;5.00;3.10;;;3.20;99.90;;;;;;5039820;28;20432;-61
2023/03/16 03:49:27;;;;;;;5.78;2.70;;;3.40;99.90;;;;;;5044973;28;20421;-60
2023/03/16 03:51:54;;;;;;;4.65;2.80;;;3.30;99.90;;;;;;5042414;28;20463;-60
2023/03/16 03:54:22;;;;;;;5.10;2.80;;;3.20;99.90;;;;;;5049488;28;20435;-60
2023/03/16 03:56:49;;;;;;;4.77;2.83;;;3.30;99.90;;;;;;5050734;28;20482;-59
2023/03/16 03:59:15;;;;;;;7.78;2.70;;;3.30;99.90;;;;;;5043086;28;20446;-60
2023/03/16 04:01:42;;;;;;;5.28;2.90;;;3.40;99.90;;;;;;5041761;28;20469;-61
2023/03/16 04:04:09;;;;;;;4.50;2.72;;;3.30;99.90;;;;;;5044069;28;20421;-61
2023/03/16 04:06:35;;;;;;;4.80;2.60;;;3.30;99.90;;;;;;5043700;28;20748;-61
2023/03/16 04:09:02;;;;;;;4.30;2.70;;;3.40;99.90;;;;;;5041562;28;20496;-61
2023/03/16 04:11:30;;;;;;;4.70;2.78;;;3.40;99.90;;;;;;5043744;28;20413;-60
2023/03/16 04:13:57;;;;;;;5.68;2.60;;;3.40;99.90;;;;;;5044357;28;20412;-60
2023/03/16 04:16:25;;;;;;;3.33;2.67;;;3.30;99.90;;;;;;5042579;28;20477;-61
2023/03/16 04:18:53;;;;;;;5.45;2.67;;;3.30;99.90;;;;;;5044958;28;20411;-60
2023/03/16 04:21:20;;;;;;;5.75;2.83;;;3.40;99.90;;;;;;5044397;28;20417;-63
2023/03/16 04:23:47;;;;;;;4.80;2.53;;;3.50;99.90;;;;;;5050309;28;20467;-60
2023/03/16 04:26:14;;;;;;;4.60;2.78;;;3.60;99.90;;;;;;5052495;28;20889;-60
2023/03/16 04:28:42;;;;;;;3.97;2.60;;;3.50;99.90;;;;;;5043214;28;20413;-60
2023/03/16 04:31:10;;;;;;;5.47;2.60;;;3.30;99.90;;;;;;5043954;28;20451;-61
2023/03/16 04:33:41;;;;;;;3.45;2.58;;;3.50;99.90;;;;;;5041458;28;20476;-61
2023/03/16 04:36:08;;;;;;;4.85;2.72;;;3.30;99.90;;;;;;5041617;28;20434;-61
2023/03/16 04:38:35;;;;;;;6.03;2.55;;;3.40;99.90;;;;;;5040721;28;20419;-61
2023/03/16 04:41:03;;;;;;;4.20;2.70;;;3.40;99.90;;;;;;5041858;28;20415;-61
2023/03/16 04:43:33;;;;;;;3.90;2.53;;;3.40;99.90;;;;;;5043300;28;20417;-61
2023/03/16 04:46:01;;;;;;;7.33;2.90;;;3.40;99.90;;;;;;5042783;28;20504;-61
2023/03/16 04:48:28;;;;;;;4.07;2.80;;;3.30;99.90;;;;;;5041112;28;20419;-61
2023/03/16 04:50:55;;;;;;;5.28;2.85;;;3.50;99.90;;;;;;5042746;28;20452;-61
2023/03/16 04:53:22;;;;;;;4.22;2.60;;;3.30;99.90;;;;;;5045960;28;20425;-61
2023/03/16 04:55:48;;;;;;;5.63;3.00;;;3.40;99.90;;;;;;5046226;28;20463;-61
2023/03/16 04:58:15;;;;;;;4.45;2.60;;;3.40;99.90;;;;;;5042745;28;20410;-61
2023/03/16 05:00:42;;;;;;;4.95;3.03;;;3.40;99.90;;;;;;5041154;28;20415;-61
2023/03/16 05:03:10;;;;;;;4.95;2.92;;;3.50;99.90;;;;;;5042371;28;20417;-60
2023/03/16 05:05:37;;;;;;;5.93;3.40;;;3.50;99.90;;;;;;5043611;28;20416;-61
2023/03/16 05:08:05;;;;;;;5.20;3.08;;;3.30;99.90;;;;;;5041648;28;20871;-61
2023/03/16 05:10:32;;;;;;;5.40;3.40;;;3.30;99.90;;;;;;5041429;28;20505;-60
2023/03/16 05:13:00;;;;;;;6.82;3.78;;;3.30;99.90;;;;;;5031925;28;20493;-60
2023/03/16 05:15:27;;;;;;;4.68;3.22;;;3.40;99.90;;;;;;5040915;28;20416;-59
2023/03/16 05:17:55;;;;;;;4.83;3.20;;;3.30;99.90;;;;;;5043305;28;20965;-61
2023/03/16 05:20:24;;;;;;;4.87;3.20;;;3.30;99.90;;;;;;5045037;28;20494;-61
2023/03/16 05:22:51;;;;;;;5.72;3.63;;;3.40;1.00;;;;;;5042316;28;20457;-61
2023/03/16 05:25:19;;;;;;;5.85;3.42;;;3.40;1.00;;;;;;5049381;28;20422;-61
2023/03/16 05:27:48;;;;;;;5.05;3.40;;;3.50;1.00;;;;;;5040697;28;20411;-60
2023/03/16 05:30:16;;;;;;;7.13;3.67;;;3.50;99.90;;;;;;5039563;28;20493;-60
2023/03/16 05:32:44;;;;;;;5.13;3.50;;;3.60;99.90;;;;;;5040147;28;20424;-60
2023/03/16 05:35:12;;;;;;;6.53;4.07;;;3.60;99.90;;;;;;5040023;28;20951;-61
2023/03/16 05:37:41;;;;;;;6.63;3.67;;;3.60;99.90;;;;;;5040778;28;20418;-60
2023/03/16 05:40:15;;;;;;;7.93;3.58;;;3.50;99.90;;;;;;5042321;28;20409;-60
2023/03/16 05:42:43;;;;;;;5.22;3.60;;;3.50;99.90;;;;;;5042279;28;20421;-60
2023/03/16 05:45:10;;;;;;;6.05;3.60;;;3.50;99.90;;;;;;5042685;28;20496;-60
2023/03/16 05:47:37;;;;;;;7.00;3.85;;;3.60;99.90;;;;;;5041469;28;20492;-59
2023/03/16 05:50:04;;;;;;;7.18;3.72;;;3.60;99.90;;;;;;5045985;28;20487;-60
2023/03/16 05:52:32;;;;;;;7.47;4.13;;;3.60;99.90;;;;;;5051607;28;20889;-59
2023/03/16 05:55:00;;;;;;;8.65;3.53;;;3.70;99.90;;;;;;5045354;28;20415;-60
2023/03/16 05:57:27;;;;;;;5.18;3.30;;;3.70;99.90;;;;;;5031038;28;20418;-59
2023/03/16 05:59:54;;;;;;;6.18;3.40;;;3.70;99.90;;;;;;5036757;28;20422;-59
2023/03/16 06:02:21;;;;;;;4.75;3.75;;;3.70;99.90;;;;;;5051412;28;20469;-60
2023/03/16 06:04:47;;;;;;;6.65;3.97;;;3.60;99.90;;;;;;5040254;28;21076;-60
2023/03/16 06:07:14;;;;;;;4.43;3.50;;;3.60;99.90;;;;;;5041759;28;20887;-60
2023/03/16 06:09:41;;;;;;;7.38;3.92;;;3.70;99.90;;;;;;5040046;28;20410;-60
2023/03/16 06:12:09;;;;;;;7.78;4.35;;;3.60;99.90;;;;;;5039639;28;20904;-60
2023/03/16 06:14:36;;;;;;;7.45;3.92;;;3.70;99.90;;;;;;5041875;28;20412;-59
2023/03/16 06:17:03;;;;;;;8.20;4.30;;;3.70;99.90;;;;;;5040456;28;20452;-60
2023/03/16 06:19:30;;;;;;;5.38;4.10;;;3.70;99.90;;;;;;5039411;28;20476;-60
2023/03/16 06:21:57;;;;;;;7.53;4.60;;;3.60;99.90;;;;;;5040726;28;20891;-59
2023/03/16 06:24:23;;;;;;;7.18;4.60;;;3.70;99.90;;;;;;5048979;28;20415;-60
2023/03/16 06:26:50;;;;;;;5.30;4.40;;;3.80;99.90;;;;;;5046917;28;20421;-60
2023/03/16 06:29:18;;;;;;;6.47;4.20;;;3.70;99.90;;;;;;5040631;28;20476;-59
2023/03/16 06:31:45;;;;;;;6.63;4.00;;;3.70;99.90;;;;;;5038709;28;20434;-60
2023/03/16 06:34:11;;;;;;;7.43;4.00;;;3.80;99.90;;;;;;5047079;28;20950;-62
2023/03/16 06:36:38;;;;;;;6.80;4.10;;;3.80;99.90;;;;;;5052538;28;20487;-63
2023/03/16 06:39:05;;;;;;;4.90;3.80;;;3.80;99.90;;;;;;5039466;28;20963;-67
2023/03/16 06:41:33;;;;;;;6.93;4.15;;;3.90;99.90;;;;;;5040389;28;20425;-67
2023/03/16 06:44:00;;;;;;;5.47;3.92;;;4.00;99.90;;;;;;5042087;28;20423;-67
2023/03/16 06:46:28;;;;;;;5.55;3.72;;;4.20;99.90;;;;;;5040886;28;20425;-68
2023/03/16 06:48:56;;;;;;;6.83;4.60;;;4.30;99.90;;;;;;5045191;28;20417;-67
2023/03/16 06:51:22;;;;;;;6.80;4.45;;;4.40;99.90;;;;;;5040852;28;20426;-69
2023/03/16 06:53:49;;;;;;;9.77;3.83;;;4.50;56.60;;;;;;5045250;28;20449;-68
2023/03/16 06:56:16;;;;;;;6.18;3.88;;;4.60;1.40;;;;;;5051065;28;20754;-65
2023/03/16 06:58:43;;;;;;;5.65;4.15;;;4.70;2.50;;;;;;5040197;28;20472;-70
2023/03/16 07:01:11;;;;;;;5.32;3.70;;;4.60;1.00;;;;;;5040478;28;20465;-67
2023/03/16 07:03:39;;;;;;;6.13;3.78;;;4.70;1.00;;;;;;5053194;28;20785;-63
2023/03/16 07:06:07;;;;;;;6.68;3.42;;;4.60;1.00;;;;;;5051444;28;20492;-64
2023/03/16 07:08:34;;;;;;;7.40;4.22;;;4.60;1.00;;;;;;5043141;28;20450;-63
2023/03/16 07:11:01;;;;;;;4.50;3.50;;;4.60;1.00;;;;;;5043805;28;20824;-64
2023/03/16 07:13:27;;;;;;;6.47;3.88;;;4.60;1.00;;;;;;5045854;28;20492;-65
2023/03/16 07:15:54;;;;;;;5.15;3.40;;;4.70;1.00;;;;;;5052299;28;20413;-64
2023/03/16 07:18:21;;;;;;;6.82;3.95;;;4.80;1.00;;;;;;5056462;28;20900;-62
2023/03/16 07:20:49;;;;;;;6.07;3.90;;;4.70;1.00;;;;;;5049441;28;20416;-62
2023/03/16 07:23:16;;;;;;;7.07;4.03;;;4.60;1.00;;;;;;5048424;28;20413;-63
2023/03/16 07:25:43;;;;;;;5.40;3.60;;;4.70;1.00;;;;;;5051104;28;20413;-62
2023/03/16 07:28:10;;;;;;;5.20;3.78;;;4.90;1.00;;;;;;5042928;28;20423;-62
2023/03/16 07:30:37;;;;;;;5.28;3.67;;;4.80;1.00;;;;;;5041421;28;20960;-63
2023/03/16 07:33:04;;;;;;;5.53;3.50;;;4.80;1.00;;;;;;5044107;28;20409;-63
2023/03/16 07:35:31;;;;;;;4.93;3.70;;;4.90;1.00;;;;;;5043566;28;20499;-63
2023/03/16 07:38:00;;;;;;;6.43;4.28;;;5.00;1.00;;;;;;5041786;28;20422;-63
2023/03/16 07:40:27;;;;;;;6.23;3.93;;;4.90;1.00;;;;;;5042865;28;20816;-64
2023/03/16 07:42:54;;;;;;;4.93;3.97;;;5.10;1.00;;;;;;5044371;28;20421;-62
2023/03/16 07:45:21;;;;;;;6.45;4.30;;;5.00;1.00;;;;;;5042614;28;20433;-62
2023/03/16 07:47:47;;;;;;;8.27;3.80;;;5.10;1.00;;;;;;5041620;28;20860;-62
2023/03/16 07:50:15;;;;;;;4.70;3.75;;;5.00;1.00;;;;;;5044062;28;20785;-61
2023/03/16 07:52:42;;;;;;;5.55;4.00;;;5.10;1.00;;;;;;5052286;28;20458;-63
2023/03/16 07:55:11;;;;;;;6.43;4.23;;;5.30;1.00;;;;;;5052740;28;20418;-64
2023/03/16 07:57:38;;;;;;;5.95;3.95;;;5.30;1.00;;;;;;5049442;28;20407;-63
2023/03/16 08:00:06;;;;;;;5.47;3.70;;;5.50;1.00;;;;;;5042033;28;20937;-61
2023/03/16 08:02:33;;;;;;;4.43;3.53;;;5.70;1.00;;;;;;5043797;28;20413;-63
2023/03/16 08:05:00;;;;;;;5.18;3.78;;;6.00;1.00;;;;;;5043700;28;20501;-63
2023/03/16 08:07:26;;;;;;;5.50;3.87;;;5.90;1.00;;;;;;5041098;28;20430;-63
2023/03/16 08:09:53;;;;;;;5.22;4.20;;;6.00;1.00;;;;;;5042102;28;20811;-64
2023/03/16 08:12:21;;;;;;;5.80;3.88;;;6.10;1.00;;;;;;5043078;28;20760;-65
2023/03/16 08:14:48;;;;;;;6.30;4.05;;;6.00;1.00;;;;;;5040992;28;20418;-65
2023/03/16 08:17:15;;;;;;;5.43;4.27;;;5.90;99.90;;;;;;5058713;28;20419;-63
2023/03/16 08:19:44;;;;;;;6.95;4.40;;;6.00;1.00;;;;;;5033162;28;20411;-64
2023/03/16 08:22:11;;;;;;;5.43;3.93;;;6.10;1.00;;;;;;5033684;28;20412;-61
2023/03/16 08:24:38;;;;;;;6.45;4.13;;;6.10;1.00;;;;;;5048720;28;20455;-62
2023/03/16 08:27:05;;;;;;;6.50;4.20;;;6.10;99.90;;;;;;5055551;28;20471;-64
2023/03/16 08:29:33;;;;;;;6.70;4.28;;;6.20;99.90;;;;;;5048696;28;20449;-64
2023/03/16 08:32:00;;;;;;;4.72;3.80;;;6.20;1.00;;;;;;5041306;28;20454;-65
2023/03/16 08:34:27;;;;;;;4.95;4.00;;;6.10;99.90;;;;;;5041315;28;20417;-64
2023/03/16 08:36:54;;;;;;;5.75;4.15;;;6.10;99.90;;;;;;5052774;28;20417;-64
2023/03/16 08:39:21;;;;;;;5.28;3.97;;;5.90;99.90;;;;;;5045967;28;20837;-67
2023/03/16 08:41:48;;;;;;;5.35;4.10;;;5.90;99.90;;;;;;5041301;28;20423;-67
2023/03/16 08:44:16;;;;;;;5.10;3.95;;;5.90;99.90;;;;;;5049028;28;20434;-66
2023/03/16 08:46:44;;;;;;;5.88;3.60;;;6.10;99.90;;;;;;5052079;28;20487;-64
2023/03/16 08:49:12;;;;;;;5.30;4.40;;;6.30;99.90;;;;;;5036897;28;20779;-64
2023/03/16 08:51:39;;;;;;;6.88;4.00;;;6.20;99.90;;;;;;5055948;28;20465;-64
2023/03/16 08:54:06;;;;;;;5.80;3.90;;;6.20;99.90;;;;;;5048271;28;20414;-65
2023/03/16 08:56:33;;;;;;;4.75;4.18;;;6.20;99.90;;;;;;5050319;28;21113;-62
2023/03/16 08:58:59;;;;;;;5.72;4.60;;;6.30;99.90;;;;;;5043349;28;20838;-64
2023/03/16 09:01:26;;;;;;;5.32;4.15;;;6.30;99.90;;;;;;5041050;28;20403;-62
2023/03/16 09:03:54;;;;;;;7.65;4.30;;;6.30;99.90;;;;;;5039338;28;20424;-63
2023/03/16 09:06:21;;;;;;;6.20;4.60;;;6.40;99.90;;;;;;5041384;28;20424;-61
2023/03/16 09:08:59;;;;;;;6.90;4.35;;;6.10;99.90;;;;;;5040507;28;20502;-62
2023/03/16 09:11:29;;;;;;;6.47;4.82;;;6.10;99.90;;;;;;5038408;28;20426;-65
2023/03/16 09:13:56;;;;;;;6.97;4.30;;;6.10;99.90;;;;;;5039083;28;20418;-65
2023/03/16 09:16:24;;;;;;;6.87;4.90;;;6.20;99.90;;;;;;5044117;28;20419;-63
2023/03/16 09:18:51;;;;;;;6.85;5.22;;;6.20;99.90;;;;;;5048513;28;20495;-63
2023/03/16 09:21:19;;;;;;;6.90;4.63;;;6.30;99.90;;;;;;5039865;28;20415;-64
2023/03/16 09:23:47;;;;;;;7.60;5.10;;;6.30;99.90;;;;;;5050028;28;20418;-64
2023/03/16 09:26:14;;;;;;;6.10;5.20;;;6.30;99.90;;;;;;5048312;28;20422;-64
2023/03/16 09:28:42;;;;;;;6.50;4.63;;;6.20;99.90;;;;;;5041589;28;20417;-64
2023/03/16 09:31:10;;;;;;;7.72;5.57;;;6.40;99.90;;;;;;5041537;28;20899;-63
2023/03/16 09:33:37;;;;;;;6.35;4.95;;;6.40;99.90;;;;;;5040406;28;20927;-63
2023/03/16 09:36:04;;;;;;;7.30;5.25;;;6.40;99.90;;;;;;5040983;28;20419;-63
2023/03/16 09:38:33;;;;;;;7.93;5.45;;;6.40;99.90;;;;;;5047428;28;20412;-65
2023/03/16 09:41:03;;;;;;;6.78;4.95;;;6.60;99.90;;;;;;5041250;28;20414;-63
2023/03/16 09:43:48;;;;;;;7.88;5.25;;;6.80;99.90;;;;;;5041626;28;20413;-65
2023/03/16 09:46:24;;;;;;;8.40;5.13;;;6.90;99.90;;;;;;5044454;28;20936;-64
2023/03/16 09:48:51;;;;;;;6.70;5.00;;;7.30;99.90;;;;;;5046231;28;20421;-64
2023/03/16 09:51:23;;;;;;;6.55;5.53;;;7.40;99.90;;;;;;5044740;28;20431;-64
2023/03/16 09:53:55;;;;;;;6.90;5.28;;;7.20;99.90;;;;;;5052294;28;20421;-64
2023/03/16 09:56:30;;;;;;;6.97;5.30;;;7.30;99.90;;;;;;5050568;28;20480;-64
2023/03/16 09:58:58;;;;;;;5.97;4.90;;;7.50;99.90;;;;;;5049756;28;20413;-62
2023/03/16 10:01:40;;;;;;;8.15;5.45;;;7.70;99.90;;;;;;5041381;28;20412;-63
2023/03/16 10:04:16;;;;;;;7.68;5.07;;;7.90;99.90;;;;;;5040805;28;20432;-62
2023/03/16 10:06:53;;;;;;;7.88;4.95;;;7.90;99.90;;;;;;5030300;28;20411;-63
2023/03/16 10:09:32;;;;;;;6.72;4.70;;;8.10;99.90;;;;;;5030356;28;20446;-63
2023/03/16 10:12:02;;;;;;;7.20;5.10;;;8.30;99.90;;;;;;5030520;28;20442;-65
2023/03/16 10:14:36;;;;;;;8.87;6.33;;;8.50;99.90;;;;;;5030622;28;20425;-67
2023/03/16 10:17:09;;;;;;;7.00;4.93;;;8.30;99.90;;;;;;5049124;28;20410;-65
2023/03/16 10:19:41;;;;;;;7.40;4.82;;;8.00;99.90;;;;;;5048416;28;20424;-65
2023/03/16 10:22:17;;;;;;;7.30;4.80;;;8.00;99.90;;;;;;5039628;28;20411;-64
2023/03/16 10:24:55;;;;;;;6.47;4.70;;;8.20;99.90;;;;;;5047499;28;20520;-64
2023/03/16 10:27:28;;;;;;;5.40;4.30;;;8.40;99.90;;;;;;5041651;28;20516;-67
2023/03/16 10:29:55;;;;;;;6.97;4.65;;;8.60;99.90;;;;;;5040497;28;20486;-64
2023/03/16 10:32:23;;;;;;;6.80;4.65;;;8.30;99.90;;;;;;5038585;28;20427;-65
2023/03/16 10:34:57;;;;;;;5.18;4.25;;;8.30;99.90;;;;;;5041800;28;20417;-66
2023/03/16 10:37:26;;;;;;;6.70;4.93;;;8.40;99.90;;;;;;5049480;28;20816;-63
2023/03/16 10:39:55;;;;;;;6.88;4.65;;;8.30;99.90;;;;;;5039959;28;20810;-65
2023/03/16 10:42:22;;;;;;;6.68;4.70;;;8.30;99.90;;;;;;5041608;28;20420;-64
2023/03/16 10:44:49;;;;;;;6.57;4.32;;;8.40;99.90;;;;;;5041837;28;20425;-66
2023/03/16 10:47:23;;;;;;;6.25;4.25;;;8.20;99.90;;;;;;5054474;28;20423;-67
2023/03/16 10:49:50;;;;;;;11.10;6.90;;;8.20;99.90;;;;;;5045633;28;20417;-63
2023/03/16 10:52:20;;;;;;;6.22;4.55;;;8.30;99.90;;;;;;5050401;28;20454;-65
2023/03/16 10:54:51;;;;;;;6.00;4.20;;;8.60;99.90;;;;;;5045512;28;20421;-65
2023/03/16 10:57:25;;;;;;;7.28;4.50;;;8.40;99.90;;;;;;5045231;28;20446;-65
2023/03/16 10:59:53;;;;;;;6.17;4.03;;;8.60;99.90;;;;;;5039155;28;20463;-66
2023/03/16 11:02:25;;;;;;;9.70;4.20;;;8.50;99.90;;;;;;5038105;28;20813;-65
2023/03/16 11:04:53;;;;;;;4.93;3.90;;;8.70;99.90;;;;;;5039805;28;20428;-64
2023/03/16 11:07:23;;;;;;;5.63;3.42;;;8.60;99.90;;;;;;5038573;28;20419;-62
2023/03/16 11:09:51;;;;;;;5.53;3.83;;;8.60;99.90;;;;;;5036888;28;20413;-64
2023/03/16 11:12:26;;;;;;;5.70;3.75;;;8.60;99.90;;;;;;5038573;28;20524;-63
2023/03/16 11:14:54;;;;;;;5.45;3.60;;;8.70;99.90;;;;;;5042110;28;20417;-63
2023/03/16 11:17:28;;;;;;;5.15;3.20;;;8.80;99.90;;;;;;5046606;28;20438;-63
2023/03/16 11:20:00;;;;;;;6.68;3.50;;;8.80;99.90;;;;;;5043792;28;20559;-63
2023/03/16 11:22:28;;;;;;;6.28;3.30;;;9.00;99.90;;;;;;5039407;28;20498;-63
2023/03/16 11:25:03;;;;;;;7.38;3.30;;;8.80;99.90;;;;;;5048988;28;21163;-62
2023/03/16 11:27:37;;;;;;;5.65;3.45;;;8.90;99.90;;;;;;5029010;28;20434;-69
2023/03/16 11:30:12;;;;;;;3.97;3.00;;;9.10;99.90;;;;;;5030064;28;20423;-68
2023/03/16 11:32:41;;;;;;;4.13;2.80;;;9.00;99.90;;;;;;5030051;28;20917;-70
2023/03/16 11:35:18;;;;;;;6.35;3.08;;;8.90;99.90;;;;;;5029905;28;20437;-70
2023/03/16 11:37:57;;;;;;;6.15;2.95;;;9.10;99.90;;;;;;5046761;28;20826;-70
2023/03/16 11:40:38;;;;;;;4.95;2.90;;;9.10;99.90;;;;;;5046450;28;20445;-70
2023/03/16 11:43:20;;;;;;;5.75;2.60;;;9.40;99.90;;;;;;5042834;28;20816;-69
2023/03/16 11:46:02;;;;;;;3.77;2.90;;;9.90;99.90;;;;;;5057070;28;20418;-69
2023/03/16 11:48:36;;;;;;;4.07;2.33;;;10.10;99.90;;;;;;5043147;28;20493;-70
2023/03/16 11:51:09;;;;;;;4.65;2.70;;;10.20;99.90;;;;;;5043739;28;20471;-71
2023/03/16 11:53:46;;;;;;;3.80;2.50;;;10.20;99.90;;;;;;5048401;28;20433;-69
2023/03/16 11:56:28;;;;;;;6.68;2.70;;;10.40;99.90;;;;;;5051850;28;20447;-65
2023/03/16 11:59:27;;;;;;;5.32;2.78;;;10.40;99.90;;;;;;5048609;28;20761;-65
2023/03/16 12:02:06;;;;;;;3.95;2.70;;;10.70;99.90;;;;;;5043760;28;20406;-65
2023/03/16 12:04:47;;;;;;;3.53;2.50;;;10.90;99.90;;;;;;5038898;28;20498;-63
2023/03/16 12:07:34;;;;;;;3.72;2.28;;;10.90;99.90;;;;;;5043065;28;20415;-65
2023/03/16 12:10:12;;;;;;;3.97;2.55;;;11.10;99.90;;;;;;5034318;28;20429;-65
2023/03/16 12:12:52;;;;;;;7.22;2.72;;;11.00;99.90;;;;;;5043002;28;20434;-64
2023/03/16 12:15:37;;;;;;;5.47;2.15;;;10.90;99.90;;;;;;5043061;28;20506;-63
2023/03/16 12:18:10;;;;;;;3.58;2.22;;;11.10;99.90;;;;;;5046248;28;20504;-63
2023/03/16 12:20:43;;;;;;;4.32;2.40;;;11.10;99.90;;;;;;5048561;28;20422;-64
2023/03/16 12:23:14;;;;;;;4.88;2.08;;;11.00;99.90;;;;;;5045848;28;20420;-68
2023/03/16 12:25:44;;;;;;;4.18;2.40;;;10.60;99.90;;;;;;5050990;28;20862;-62
2023/03/16 12:28:18;;;;;;;3.38;2.00;;;10.30;99.90;;;;;;5042804;28;20427;-63
2023/03/16 12:30:53;;;;;;;5.47;2.10;;;10.40;99.90;;;;;;5034276;28;20454;-63
2023/03/16 12:33:34;;;;;;;3.83;2.05;;;10.50;99.90;;;;;;5031551;28;20427;-63
2023/03/16 12:36:06;;;;;;;5.28;2.15;;;11.10;99.90;;;;;;5031780;28;20422;-63
2023/03/16 12:38:42;;;;;;;5.40;2.30;;;10.40;99.90;;;;;;5043531;28;20909;-62
2023/03/16 12:41:19;;;;;;;3.33;1.58;;;10.50;99.90;;;;;;5042256;28;20476;-62
2023/03/16 12:44:10;;;;;;;4.05;1.80;;;10.40;99.90;;;;;;5046678;28;20417;-62
2023/03/16 12:46:48;;;;;;;4.15;2.03;;;10.40;99.90;;;;;;5040730;28;20418;-62
2023/03/16 12:49:15;;;;;;;4.20;1.90;;;10.50;99.90;;;;;;5044804;28;20421;-62
2023/03/16 12:51:44;;;;;;;5.63;1.80;;;10.60;99.90;;;;;;5049437;28;20415;-63
2023/03/16 12:54:20;;;;;;;5.00;1.95;;;10.60;99.90;;;;;;5048291;28;20419;-67
2023/03/16 12:56:49;;;;;;;2.88;1.77;;;11.00;99.90;;;;;;5046733;28;20500;-65
2023/03/16 12:59:18;;;;;;;3.65;2.08;;;10.80;99.90;;;;;;5051513;28;20423;-67
2023/03/16 13:01:50;;;;;;;6.60;3.15;;;11.00;99.90;;;;;;5044641;28;20786;-64
2023/03/16 13:04:19;;;;;;;3.75;2.15;;;11.00;99.90;;;;;;5044417;28;20486;-64
2023/03/16 13:06:49;;;;;;;2.78;1.67;;;11.10;99.90;;;;;;5040672;28;20469;-64
2023/03/16 13:09:20;;;;;;;4.43;2.08;;;11.00;99.90;;;;;;5039575;28;20415;-64